LFLL 210400Z 35017KT 9999 FEW013 01/M01 Q1028 TEMPO BKN012

ElémentsDécodage
LFLL Station météo située sur l'aérodrome de LYON Saint-Exupéry
210400Z émis le 21 du mois à 04h00 UTC
35017KT vent du 350°, 17 noeuds
9999 visibilité horizontale supérieure à 10 Km
FEW013 nuages rares (1/8 à 2/8) à 1300 pieds
01/M01 température 01°C, point de rosée -01°C
 soit une humidité relative de 86%
Q1028 la pression au niveau de la mer (QNH) est de 1028 hPa
TEMPO fluctuation temporaire prévue
BKN012 nuages morcelés (5/8 à 7/8) à 1200 pieds